Time;durP1;ratioP1;P1;durP2;ratioP2;P2;SDS_P1;SDS_P2;PMS_P1;PMS_P2;Temp;Humidity;BMP_temperature;BMP_pressure;BME280_temperature;BME280_humidity;BME280_pressure;Samples;Min_cycle;Max_cycle;Signal;HPM_P1;HPM_P2
2023/12/16 00:01:02;;;;;;;26.10;16.40;;;;;;;-141.84;100.00;119224.81;5009568;28;20205;-65
2023/12/16 00:03:31;;;;;;;23.13;15.33;;;;;;;-141.84;100.00;119224.81;4999883;28;20215;-65
2023/12/16 00:05:59;;;;;;;29.83;16.47;;;;;;;-141.84;100.00;119224.81;5008970;28;20237;-66
2023/12/16 00:08:29;;;;;;;28.83;16.60;;;;;;;-141.84;100.00;119224.81;5008980;28;20620;-66
2023/12/16 00:10:58;;;;;;;27.77;16.27;;;;;;;-141.84;100.00;119224.81;5009299;28;20288;-66
2023/12/16 00:13:27;;;;;;;30.37;16.53;;;;;;;-141.84;100.00;119224.81;5006710;28;20620;-66
2023/12/16 00:15:55;;;;;;;26.77;15.40;;;;;;;-141.84;100.00;119224.81;4990502;28;20206;-66
2023/12/16 00:18:24;;;;;;;29.37;16.63;;;;;;;-141.84;100.00;119224.81;5009012;28;20288;-65
2023/12/16 00:20:54;;;;;;;27.50;15.73;;;;;;;-141.84;100.00;119224.81;5008987;28;20714;-66
2023/12/16 00:23:22;;;;;;;27.67;16.63;;;;;;;-141.84;100.00;119224.81;5008815;28;20318;-66
2023/12/16 00:25:52;;;;;;;25.97;16.03;;;;;;;-141.84;100.00;119224.81;5008948;28;20234;-66
2023/12/16 00:28:20;;;;;;;25.10;16.83;;;;;;;-141.84;100.00;119224.81;5008682;28;20286;-66
2023/12/16 00:30:49;;;;;;;31.07;17.60;;;;;;;-141.84;100.00;119224.81;5009499;28;20203;-66
2023/12/16 00:33:18;;;;;;;26.43;16.10;;;;;;;-141.84;100.00;119224.81;5008592;28;20245;-66
2023/12/16 00:35:46;;;;;;;24.27;15.27;;;;;;;-141.84;100.00;119224.81;5008694;28;20281;-66
2023/12/16 00:38:15;;;;;;;23.87;14.97;;;;;;;-141.84;100.00;119224.81;5008788;28;20277;-67
2023/12/16 00:40:43;;;;;;;22.23;15.13;;;;;;;-141.84;100.00;119224.81;5009030;28;20440;-66
2023/12/16 00:43:13;;;;;;;22.30;14.57;;;;;;;-141.84;100.00;119224.81;5008971;28;20274;-66
2023/12/16 00:45:42;;;;;;;23.77;13.67;;;;;;;-141.84;100.00;119224.81;5009675;28;20244;-66
2023/12/16 00:48:10;;;;;;;21.80;14.60;;;;;;;-141.84;100.00;119224.81;5008925;28;20227;-67
2023/12/16 00:50:39;;;;;;;22.90;13.83;;;;;;;-141.84;100.00;119224.81;5009997;28;20225;-67
2023/12/16 00:53:07;;;;;;;24.00;14.63;;;;;;;-141.84;100.00;119224.81;5014089;28;20784;-66
2023/12/16 00:55:36;;;;;;;21.97;13.80;;;;;;;-141.84;100.00;119224.81;5014033;28;20226;-65
2023/12/16 00:58:05;;;;;;;19.97;12.27;;;;;;;-141.84;100.00;119224.81;5014250;28;20210;-66
2023/12/16 01:00:35;;;;;;;22.77;13.23;;;;;;;-141.84;100.00;119224.81;5014755;28;20210;-68
2023/12/16 01:03:04;;;;;;;20.90;13.00;;;;;;;-141.84;100.00;119224.81;5013947;28;20225;-67
2023/12/16 01:05:33;;;;;;;20.17;13.10;;;;;;;-141.84;100.00;119224.81;5013651;28;20717;-67
2023/12/16 01:08:02;;;;;;;23.33;13.33;;;;;;;-141.84;100.00;119224.81;5014195;28;20222;-69
2023/12/16 01:10:31;;;;;;;23.13;13.07;;;;;;;-141.84;100.00;119224.81;5014223;28;20223;-68
2023/12/16 01:12:59;;;;;;;24.50;13.97;;;;;;;-141.84;100.00;119224.81;5013137;28;20222;-69
2023/12/16 01:15:28;;;;;;;19.43;13.57;;;;;;;-141.84;100.00;119224.81;5013707;28;20310;-68
2023/12/16 01:17:58;;;;;;;20.53;12.97;;;;;;;-141.84;100.00;119224.81;5013603;28;20313;-68
2023/12/16 01:20:26;;;;;;;22.37;13.47;;;;;;;-141.84;100.00;119224.81;4997862;28;20226;-69
2023/12/16 01:22:55;;;;;;;23.37;13.37;;;;;;;-141.84;100.00;119224.81;5014035;28;20340;-69
2023/12/16 01:25:23;;;;;;;19.97;12.80;;;;;;;-141.84;100.00;119224.81;5013427;28;20565;-69
2023/12/16 01:27:52;;;;;;;21.33;12.97;;;;;;;-141.84;100.00;119224.81;5014458;28;20194;-68
2023/12/16 01:30:20;;;;;;;19.43;11.80;;;;;;;-141.84;100.00;119224.81;5010814;28;20289;-69
2023/12/16 01:32:49;;;;;;;18.63;11.60;;;;;;;-141.84;100.00;119224.81;5013484;28;20238;-68
2023/12/16 01:35:19;;;;;;;19.07;11.67;;;;;;;-141.84;100.00;119224.81;5013418;28;20721;-70
2023/12/16 01:37:47;;;;;;;20.33;11.60;;;;;;;-141.84;100.00;119224.81;5013922;28;20240;-69
2023/12/16 01:40:16;;;;;;;20.27;11.43;;;;;;;-141.84;100.00;119224.81;5013679;28;20226;-69
2023/12/16 01:42:47;;;;;;;19.77;11.53;;;;;;;-141.84;100.00;119224.81;5013770;28;20206;-69
2023/12/16 01:45:17;;;;;;;18.83;11.00;;;;;;;-141.84;100.00;119224.81;5013320;28;20231;-69
2023/12/16 01:47:47;;;;;;;16.43;11.20;;;;;;;-141.84;100.00;119224.81;5013431;28;20277;-67
2023/12/16 01:50:18;;;;;;;17.80;11.60;;;;;;;-141.84;100.00;119224.81;5013388;28;20299;-70
2023/12/16 01:52:47;;;;;;;20.87;11.37;;;;;;;-141.84;100.00;119224.81;5013521;28;20226;-69
2023/12/16 01:55:16;;;;;;;19.20;10.60;;;;;;;-141.84;100.00;119224.81;5013477;28;20290;-69
2023/12/16 01:57:46;;;;;;;14.53;9.87;;;;;;;-141.84;100.00;119224.81;5014092;28;20207;-69
2023/12/16 02:00:15;;;;;;;19.00;10.60;;;;;;;-141.84;100.00;119224.81;5013004;28;20233;-69
2023/12/16 02:02:44;;;;;;;14.50;9.80;;;;;;;-141.84;100.00;119224.81;5012964;28;20218;-69
2023/12/16 02:05:12;;;;;;;15.93;9.43;;;;;;;-141.84;100.00;119224.81;5012727;28;20254;-68
2023/12/16 02:07:43;;;;;;;19.17;10.30;;;;;;;-141.84;100.00;119224.81;5013447;28;20302;-69
2023/12/16 02:10:11;;;;;;;16.47;9.30;;;;;;;-141.84;100.00;119224.81;5012963;28;20211;-69
2023/12/16 02:12:40;;;;;;;15.47;9.37;;;;;;;-141.84;100.00;119224.81;5013565;28;20195;-69
2023/12/16 02:15:09;;;;;;;13.87;8.43;;;;;;;-141.84;100.00;119224.81;5013056;28;20234;-69
2023/12/16 02:17:37;;;;;;;18.17;8.73;;;;;;;-141.84;100.00;119224.81;5012839;28;20308;-68
2023/12/16 02:20:08;;;;;;;13.53;8.70;;;;;;;-141.84;100.00;119224.81;5012729;28;20227;-68
2023/12/16 02:22:36;;;;;;;13.87;8.37;;;;;;;-141.84;100.00;119224.81;5012477;28;20223;-68
2023/12/16 02:25:10;;;;;;;16.07;8.50;;;;;;;-141.84;100.00;119224.81;5012790;28;20317;-69
2023/12/16 02:27:39;;;;;;;16.17;8.73;;;;;;;-141.84;100.00;119224.81;5013272;28;20642;-68
2023/12/16 02:30:10;;;;;;;14.67;8.10;;;;;;;-141.84;100.00;119224.81;5012508;28;20230;-68
2023/12/16 02:32:38;;;;;;;17.83;8.80;;;;;;;-141.84;100.00;119224.81;5012327;28;20230;-68
2023/12/16 02:35:08;;;;;;;15.67;7.93;;;;;;;-141.84;100.00;119224.81;5012285;28;20278;-68
2023/12/16 02:37:36;;;;;;;14.70;8.27;;;;;;;-141.84;100.00;119224.81;5012409;28;20662;-69
2023/12/16 02:40:08;;;;;;;17.37;8.87;;;;;;;-141.84;100.00;119224.81;5012100;28;20869;-69
2023/12/16 02:42:37;;;;;;;13.80;8.23;;;;;;;-141.84;100.00;119224.81;5012816;28;20210;-68
2023/12/16 02:45:06;;;;;;;15.77;8.80;;;;;;;-141.84;100.00;119224.81;5012005;28;20664;-68
2023/12/16 02:47:35;;;;;;;15.80;9.47;;;;;;;-141.84;100.00;117622.84;5012149;28;20289;-69
2023/12/16 02:50:06;;;;;;;11.90;8.00;;;;;;;-141.84;100.00;114957.72;5012136;28;20697;-68
2023/12/16 02:52:34;;;;;;;15.30;9.00;;;;;;;-141.84;100.00;115490.59;5012303;28;20313;-68
2023/12/16 02:55:03;;;;;;;15.60;8.97;;;;;;;-141.84;100.00;115490.59;5012624;28;20312;-68
2023/12/16 02:57:33;;;;;;;14.13;9.00;;;;;;;-141.84;100.00;115224.16;5012236;28;20681;-69
2023/12/16 03:00:02;;;;;;;13.67;8.93;;;;;;;-141.84;100.00;116556.59;5011891;28;20234;-68
2023/12/16 03:02:30;;;;;;;15.37;8.37;;;;;;;-141.84;100.00;117622.84;5011693;28;20230;-68
2023/12/16 03:04:59;;;;;;;13.07;8.77;;;;;;;-141.84;100.00;117622.84;5011693;28;20222;-69
2023/12/16 03:07:28;;;;;;;16.33;8.80;;;;;;;-141.84;100.00;118689.38;5011769;28;20587;-68
2023/12/16 03:09:56;;;;;;;15.30;8.47;;;;;;;-141.84;100.00;118956.03;5012429;28;20462;-68
2023/12/16 03:12:25;;;;;;;14.93;8.20;;;;;;;-141.84;100.00;119222.75;5011590;28;20230;-69
2023/12/16 03:14:55;;;;;;;13.60;8.67;;;;;;;-141.84;100.00;117356.25;5006341;28;20317;-69
2023/12/16 03:17:23;;;;;;;12.43;8.63;;;;;;;-141.84;100.00;116556.59;5011243;28;20786;-68
2023/12/16 03:19:52;;;;;;;12.10;8.40;;;;;;;-141.84;100.00;115490.59;5011742;28;20642;-68
2023/12/16 03:22:20;;;;;;;17.07;8.97;;;;;;;-141.84;100.00;114691.31;5011489;28;20213;-68
2023/12/16 03:24:49;;;;;;;14.70;8.07;;;;;;;-141.84;100.00;115757.06;5011929;28;20604;-69
2023/12/16 03:27:17;;;;;;;16.83;9.17;;;;;;;-141.84;100.00;116823.13;5011048;28;20702;-68
2023/12/16 03:29:46;;;;;;;15.53;8.43;;;;;;;-141.84;100.00;116823.13;5011094;28;20741;-69
2023/12/16 03:32:16;;;;;;;14.40;9.53;;;;;;;-141.84;100.00;117089.69;5011114;28;20265;-69
2023/12/16 03:34:44;;;;;;;14.70;8.93;;;;;;;-141.84;100.00;117089.69;5011204;28;20292;-67
2023/12/16 03:37:14;;;;;;;15.70;8.87;;;;;;;-141.84;100.00;116823.13;5011336;28;20199;-67
2023/12/16 03:39:42;;;;;;;12.73;8.63;;;;;;;-141.84;100.00;116556.59;5012420;28;20257;-68
2023/12/16 03:42:11;;;;;;;15.20;8.97;;;;;;;-141.84;100.00;114691.31;5011263;28;20305;-69
2023/12/16 03:44:41;;;;;;;12.13;8.33;;;;;;;-141.84;100.00;113892.16;5011125;28;20615;-69
2023/12/16 03:47:10;;;;;;;16.77;9.37;;;;;;;-141.84;100.00;114424.91;5011189;28;20305;-68
2023/12/16 03:49:40;;;;;;;13.47;8.53;;;;;;;-141.84;100.00;112294.34;5011172;28;20505;-68
2023/12/16 03:52:09;;;;;;;12.87;8.87;;;;;;;-141.84;100.00;111761.88;5011253;28;20195;-69
2023/12/16 03:54:37;;;;;;;16.43;8.50;;;;;;;-141.84;100.00;112294.34;5011600;28;20603;-69
2023/12/16 03:57:06;;;;;;;15.10;8.60;;;;;;;-141.84;100.00;110697.16;5010954;28;20226;-68
2023/12/16 03:59:35;;;;;;;15.80;8.40;;;;;;;-141.84;100.00;112028.13;5010714;28;20322;-69
2023/12/16 04:02:03;;;;;;;14.97;8.63;;;;;;;-141.84;100.00;112560.63;5012244;28;20222;-68
2023/12/16 04:04:33;;;;;;;14.03;8.57;;;;;;;-141.84;100.00;113093.19;5014520;28;20277;-68
2023/12/16 04:07:03;;;;;;;16.87;8.87;;;;;;;-141.84;100.00;109898.81;5014902;28;20195;-68
2023/12/16 04:09:32;;;;;;;13.03;8.33;;;;;;;-141.84;100.00;109366.66;5014904;28;20310;-68
2023/12/16 04:12:00;;;;;;;14.33;8.33;;;;;;;-141.84;100.00;110164.91;5014534;28;20258;-68
2023/12/16 04:14:29;;;;;;;13.73;8.23;;;;;;;-141.84;100.00;110164.91;4994464;28;20391;-68
2023/12/16 04:16:58;;;;;;;13.13;7.87;;;;;;;-141.84;100.00;107770.63;4994497;28;20227;-68
2023/12/16 04:19:26;;;;;;;13.57;8.03;;;;;;;-141.84;100.00;106972.81;4994310;28;20941;-68
2023/12/16 04:21:55;;;;;;;13.83;7.63;;;;;;;-141.84;100.00;109898.81;4993901;28;20205;-68
2023/12/16 04:24:25;;;;;;;13.60;8.07;;;;;;;-141.84;100.00;109898.81;4994465;28;20726;-68
2023/12/16 04:26:55;;;;;;;13.40;8.50;;;;;;;-141.84;100.00;106706.94;4993973;28;20318;-69
2023/12/16 04:29:23;;;;;;;14.37;7.20;;;;;;;-141.84;100.00;104314.66;5007806;28;20313;-70
2023/12/16 04:31:52;;;;;;;16.97;8.10;;;;;;;-141.84;100.00;103783.25;5014803;28;20261;-69
2023/12/16 04:34:20;;;;;;;11.70;6.97;;;;;;;-141.84;100.00;104580.41;5014716;28;20262;-69
2023/12/16 04:36:49;;;;;;;13.53;7.43;;;;;;;-141.84;100.00;106175.19;5014712;28;20202;-68
2023/12/16 04:39:17;;;;;;;13.70;7.33;;;;;;;-141.84;100.00;107504.66;5012679;28;20542;-69
2023/12/16 04:41:47;;;;;;;12.03;7.53;;;;;;;-141.84;100.00;106972.81;5012709;28;20257;-68
2023/12/16 04:44:16;;;;;;;11.90;7.10;;;;;;;-141.84;100.00;106175.19;5011436;28;20230;-69
2023/12/16 04:46:44;;;;;;;10.10;6.73;;;;;;;-141.84;100.00;106706.94;5012512;28;20781;-68
2023/12/16 04:49:13;;;;;;;13.77;7.87;;;;;;;-141.84;100.00;103251.88;5011668;28;20238;-66
2023/12/16 04:51:41;;;;;;;11.37;8.00;;;;;;;-141.84;100.00;101127.16;5010904;28;20289;-65
2023/12/16 04:54:10;;;;;;;10.87;7.53;;;;;;;-141.84;100.00;100861.66;5010381;28;20230;-66
2023/12/16 04:56:38;;;;;;;14.43;7.43;;;;;;;-141.84;100.00;96615.84;5010722;28;20280;-66
2023/12/16 04:59:08;;;;;;;9.13;7.00;;;;;;;-141.84;100.00;90785.09;5009578;28;20227;-66
2023/12/16 05:01:36;;;;;;;10.63;6.97;;;;;;;-141.84;100.00;87608.25;5010075;28;20314;-66
2023/12/16 05:04:05;;;;;;;11.00;7.53;;;;;;;-141.84;100.00;91844.63;5010084;28;20206;-66
2023/12/16 05:06:34;;;;;;;14.77;7.53;;;;;;;-141.84;100.00;97676.88;5010202;28;20575;-66
2023/12/16 05:09:06;;;;;;;12.93;7.67;;;;;;;-141.84;100.00;96085.44;5009768;28;20214;-66
2023/12/16 05:11:35;;;;;;;14.37;7.90;;;;;;;-141.84;100.00;99534.38;5010212;28;20310;-67
2023/12/16 05:14:04;;;;;;;12.00;7.87;;;;;;;-141.84;100.00;91314.81;5009355;28;20231;-66
2023/12/16 05:16:33;;;;;;;12.37;7.63;;;;;;;-141.84;100.00;95289.94;5010020;28;20222;-66
2023/12/16 05:19:03;;;;;;;10.63;6.97;;;;;;;-141.84;100.00;93169.38;5009162;28;20203;-67
2023/12/16 05:21:32;;;;;;;11.77;7.43;;;;;;;-141.84;100.00;97146.31;5010191;28;20235;-67
2023/12/16 05:24:00;;;;;;;14.10;7.80;;;;;;;-141.84;100.00;99534.38;5009720;28;20445;-67
2023/12/16 05:26:29;;;;;;;11.97;7.53;;;;;;;-141.84;100.00;100065.22;5009569;28;20711;-65
2023/12/16 05:28:57;;;;;;;12.63;7.00;;;;;;;-141.84;100.00;95555.09;5009564;28;20265;-65
2023/12/16 05:31:26;;;;;;;10.80;7.13;;;;;;;-141.84;100.00;91314.81;5009500;28;20242;-66
2023/12/16 05:33:56;;;;;;;9.83;6.70;;;;;;;-141.84;100.00;93434.41;5009778;28;20235;-66
2023/12/16 05:36:24;;;;;;;12.80;7.33;;;;;;;-141.84;100.00;94759.69;5010238;28;20702;-67
2023/12/16 05:38:53;;;;;;;13.17;7.23;;;;;;;-141.84;100.00;96881.06;5013599;28;20309;-67
2023/12/16 05:41:21;;;;;;;13.23;7.53;;;;;;;-141.84;100.00;96881.06;5013483;28;20257;-67
2023/12/16 05:43:50;;;;;;;14.93;8.27;;;;;;;-141.84;100.00;92639.44;5013296;28;20317;-67
2023/12/16 05:46:18;;;;;;;13.70;7.87;;;;;;;-141.84;100.00;93699.44;5014473;28;20234;-65
2023/12/16 05:48:47;;;;;;;11.00;6.60;;;;;;;-141.84;100.00;85491.75;5013624;28;20213;-66
2023/12/16 05:51:17;;;;;;;13.80;7.70;;;;;;;-141.84;100.00;91314.81;5013227;28;20230;-66
2023/12/16 05:53:45;;;;;;;11.77;6.70;;;;;;;-141.84;100.00;96881.06;5013033;28;20235;-66
2023/12/16 05:56:14;;;;;;;10.33;7.03;;;;;;;-141.84;100.00;99799.78;5013202;28;20231;-66
2023/12/16 05:58:43;;;;;;;17.77;8.23;;;;;;;-141.84;100.00;101127.16;5012851;28;20773;-66
2023/12/16 06:01:11;;;;;;;11.57;7.17;;;;;;;-141.84;100.00;96615.84;5012753;28;20675;-66
2023/12/16 06:03:40;;;;;;;12.13;7.40;;;;;;;-141.84;100.00;100065.22;5005272;28;20206;-66
2023/12/16 06:06:09;;;;;;;18.30;7.50;;;;;;;-141.84;100.00;90785.09;5012783;28;20219;-67
2023/12/16 06:08:39;;;;;;;14.50;7.50;;;;;;;-141.84;100.00;85227.25;5012767;28;20254;-67
2023/12/16 06:11:12;;;;;;;13.73;7.77;;;;;;;-141.84;100.00;85227.25;5012939;28;20320;-67
2023/12/16 06:13:41;;;;;;;14.20;8.00;;;;;;;-141.84;100.00;88402.22;5012443;28;20301;-67
2023/12/16 06:16:09;;;;;;;11.73;7.93;;;;;;;-141.84;100.00;91049.97;5012851;28;20662;-64
2023/12/16 06:18:47;;;;;;;11.50;7.47;;;;;;;-141.84;100.00;89196.38;5013401;28;20222;-66
2023/12/16 06:21:17;;;;;;;16.60;7.80;;;;;;;-141.84;100.00;89461.13;5012692;28;20690;-66
2023/12/16 06:23:46;;;;;;;9.83;7.50;;;;;;;-141.84;100.00;93434.41;5012332;28;20776;-66
2023/12/16 06:26:15;;;;;;;15.47;7.57;;;;;;;-141.84;100.00;90520.28;5012678;28;21054;-66
2023/12/16 06:28:43;;;;;;;12.57;7.97;;;;;;;-141.84;100.00;84698.34;5012454;28;20301;-65
2023/12/16 06:31:16;;;;;;;14.60;7.50;;;;;;;-141.84;100.00;83112.00;5012731;28;20230;-66
2023/12/16 06:33:45;;;;;;;9.43;7.43;;;;;;;-141.84;100.00;81262.06;5012793;28;20237;-66
2023/12/16 06:36:14;;;;;;;12.00;7.77;;;;;;;-141.84;100.00;81790.53;5012305;28;20265;-66
2023/12/16 06:38:42;;;;;;;13.37;9.23;;;;;;;-141.84;100.00;78356.72;5012611;28;20310;-65
2023/12/16 06:41:12;;;;;;;12.17;7.87;;;;;;;-141.84;100.00;82847.66;5012526;28;20288;-66
2023/12/16 06:43:40;;;;;;;17.40;9.23;;;;;;;-141.84;100.00;83905.09;5012594;28;20334;-67
2023/12/16 06:46:09;;;;;;;15.60;8.80;;;;;;;-141.84;100.00;82319.06;5012314;28;20292;-66
2023/12/16 06:48:37;;;;;;;13.93;7.33;;;;;;;-141.84;100.00;78356.72;5012357;28;20202;-67
2023/12/16 06:51:06;;;;;;;13.87;7.53;;;;;;;-141.84;100.00;82054.78;5012114;28;20317;-66
2023/12/16 06:53:36;;;;;;;15.23;9.00;;;;;;;-141.84;100.00;81526.28;5012205;28;20227;-66
2023/12/16 06:56:05;;;;;;;13.33;8.80;;;;;;;-141.84;100.00;83112.00;5012384;28;20250;-66
2023/12/16 06:58:35;;;;;;;14.77;9.50;;;;;;;-141.84;100.00;78356.72;5011866;28;20318;-66
2023/12/16 07:01:04;;;;;;;15.43;9.43;;;;;;;-141.84;100.00;83640.72;5012331;28;20226;-66
2023/12/16 07:03:33;;;;;;;13.03;9.37;;;;;;;-141.84;99.86;76772.88;5012106;28;20227;-67
2023/12/16 07:06:02;;;;;;;15.37;10.00;;;;;;;-141.84;100.00;81526.28;5011412;28;20341;-66
2023/12/16 07:08:31;;;;;;;16.07;10.10;;;;;;;-141.84;100.00;83640.72;5011882;28;20230;-67
2023/12/16 07:10:59;;;;;;;16.37;10.53;;;;;;;-141.84;100.00;77828.72;5011891;28;20314;-66
2023/12/16 07:13:28;;;;;;;16.73;10.40;;;;;;;-141.84;99.35;74398.31;5011465;28;20222;-66
2023/12/16 07:15:58;;;;;;;16.57;9.83;;;;;;;-141.84;100.00;81526.28;5012009;28;20244;-66
2023/12/16 07:18:26;;;;;;;16.63;9.90;;;;;;;-141.84;100.00;84698.34;5011652;28;20314;-66
2023/12/16 07:20:55;;;;;;;21.67;11.57;;;;;;;-141.84;100.00;84698.34;5011562;28;20226;-67
2023/12/16 07:23:24;;;;;;;18.27;10.50;;;;;;;-141.84;100.00;83376.34;5011484;28;20802;-67
2023/12/16 07:25:52;;;;;;;15.03;9.90;;;;;;;-141.84;100.00;80733.66;5011538;28;20215;-66
2023/12/16 07:28:21;;;;;;;17.03;9.70;;;;;;;-141.84;98.26;71761.53;5011690;28;20191;-66
2023/12/16 07:30:50;;;;;;;14.37;9.47;;;;;;;-141.84;97.85;68599.69;5011691;28;20720;-67
2023/12/16 07:33:20;;;;;;;13.13;8.83;;;;;;;-141.84;98.72;72025.13;5011240;28;20258;-67
2023/12/16 07:35:48;;;;;;;15.83;9.67;;;;;;;-141.84;100.00;79412.97;5011081;28;20239;-66
2023/12/16 07:38:21;;;;;;;14.77;9.67;;;;;;;-141.84;99.47;75717.34;5011606;28;20226;-67
2023/12/16 07:40:50;;;;;;;21.90;9.80;;;;;;;-141.84;100.00;78092.72;5011192;28;20222;-66
2023/12/16 07:43:18;;;;;;;17.43;10.13;;;;;;;-141.84;100.00;81262.06;5010918;28;20293;-66
2023/12/16 07:45:47;;;;;;;17.73;10.17;;;;;;;-141.84;100.00;83640.72;5011176;28;20655;-66
2023/12/16 07:48:15;;;;;;;18.00;11.03;;;;;;;-141.84;99.23;77036.81;4991597;28;20234;-67
2023/12/16 07:50:45;;;;;;;15.73;11.00;;;;;;;-141.84;97.76;68863.09;4991144;28;20227;-67
2023/12/16 07:53:14;;;;;;;15.23;10.67;;;;;;;-141.84;99.33;74398.31;4991380;28;20306;-65
2023/12/16 07:55:43;;;;;;;15.23;10.47;;;;;;;-141.84;99.12;75189.69;5006843;28;20698;-65
2023/12/16 07:58:12;;;;;;;18.70;11.10;;;;;;;-141.84;99.42;74662.09;5010738;28;20308;-66
2023/12/16 08:00:41;;;;;;;18.83;11.23;;;;;;;-141.84;100.00;79412.97;5010380;28;20207;-66
2023/12/16 08:03:10;;;;;;;19.17;11.20;;;;;;;-141.84;100.00;80469.50;5010779;28;20292;-67
2023/12/16 08:05:41;;;;;;;18.53;11.07;;;;;;;-141.84;100.00;79941.19;5010584;28;20318;-67
2023/12/16 08:08:10;;;;;;;20.00;11.30;;;;;;;-141.84;100.00;82054.78;5010937;28;20265;-67
2023/12/16 08:10:39;;;;;;;16.87;10.80;;;;;;;-141.84;100.00;82054.78;5010642;28;20226;-66
2023/12/16 08:13:08;;;;;;;18.80;10.80;;;;;;;-141.84;100.00;83640.72;5010433;28;20195;-67
2023/12/16 08:15:37;;;;;;;14.73;10.17;;;;;;;-141.84;100.00;82054.78;5011139;28;20209;-66
2023/12/16 08:18:07;;;;;;;17.30;10.23;;;;;;;-141.84;99.07;75189.69;5010559;28;20249;-66
2023/12/16 08:20:36;;;;;;;14.33;10.47;;;;;;;-141.84;99.93;77564.72;5006224;28;20225;-68
2023/12/16 08:23:05;;;;;;;16.70;9.77;;;;;;;-141.84;99.59;78092.72;4996204;28;20305;-66
2023/12/16 08:25:36;;;;;;;15.87;10.20;;;;;;;-141.84;98.01;70443.78;4992702;28;20753;-67
2023/12/16 08:28:04;;;;;;;17.43;12.60;;;;;;;-141.84;96.52;66493.19;5010765;28;20322;-68
2023/12/16 08:30:33;;;;;;;14.17;10.73;;;;;;;-141.84;94.35;53877.56;5010747;28;20674;-69
2023/12/16 08:33:01;;;;;;;14.87;9.40;;;;;;;-141.84;95.58;60443.22;5010224;28;20686;-67
2023/12/16 08:35:30;;;;;;;15.67;9.30;;;;;;;-141.84;94.75;58603.75;5010267;28;20230;-69
2023/12/16 08:38:00;;;;;;;15.57;9.20;;;;;;;-141.84;93.21;47846.78;5010241;28;20230;-69
2023/12/16 08:40:29;;;;;;;12.33;8.47;;;;;;;-141.84;93.56;51516.59;5010485;28;20273;-70
2023/12/16 08:42:59;;;;;;;17.27;8.97;;;;;;;-141.84;92.10;41530.88;5009998;28;20199;-68
2023/12/16 08:45:27;;;;;;;13.33;8.63;;;;;;;-141.84;92.02;42610.09;5008071;28;21748;-69
2023/12/16 08:47:56;;;;;;;15.27;8.97;;;;;;;-141.84;92.65;43918.63;5008272;28;20951;-70
2023/12/16 08:50:24;;;;;;;12.33;8.00;;;;;;;-141.84;91.77;38448.22;5007586;28;20226;-71
2023/12/16 08:52:52;;;;;;;12.37;9.13;;;;;;;-141.84;91.95;40607.25;5009180;28;20234;-71
2023/12/16 08:55:21;;;;;;;14.00;9.73;;;;;;;-141.84;92.37;42610.09;5009158;28;20246;-72
2023/12/16 08:57:50;;;;;;;13.03;8.53;;;;;;;-141.84;90.34;32459.31;5010793;28;20226;-70
2023/12/16 09:00:21;;;;;;;16.20;8.57;;;;;;;-141.84;89.02;25738.59;5010006;28;20229;-71
2023/12/16 09:02:49;;;;;;;14.30;8.80;;;;;;;-141.84;89.84;29785.13;5009966;28;20226;-70
2023/12/16 09:05:19;;;;;;;13.97;9.73;;;;;;;-141.84;89.75;28261.34;5010061;28;20600;-69
2023/12/16 09:07:48;;;;;;;18.47;9.60;;;;;;;-141.84;88.19;24704.72;5006524;28;20218;-69
2023/12/16 09:10:16;;;;;;;14.87;9.37;;;;;;;-141.84;86.46;21322.13;5005513;28;20206;-68
2023/12/16 09:12:47;;;;;;;16.10;9.80;;;;;;;-141.84;87.07;21736.94;5012546;28;20667;-69
2023/12/16 09:15:17;;;;;;;15.20;8.53;;;;;;;-141.84;86.25;21490.91;5013213;28;20234;-62
2023/12/16 09:17:47;;;;;;;13.83;9.60;;;;;;;-141.84;85.75;20610.59;5012607;28;20309;-67
2023/12/16 09:20:16;;;;;;;14.43;8.30;;;;;;;-141.84;84.61;19862.63;5012516;28;20318;-68
2023/12/16 09:22:45;;;;;;;15.37;8.63;;;;;;;-141.84;85.70;20470.34;5007231;28;20305;-66
2023/12/16 09:25:13;;;;;;;14.80;8.27;;;;;;;-141.84;84.76;19954.06;5013254;28;20199;-67
2023/12/16 09:27:43;;;;;;;15.57;8.37;;;;;;;-141.84;84.48;19801.66;5005801;28;20207;-65
2023/12/16 09:30:13;;;;;;;11.40;8.10;;;;;;;-141.84;84.14;19620.78;5007488;28;20223;-67
2023/12/16 09:32:45;;;;;;;13.67;8.17;;;;;;;-141.84;84.35;19726.44;5013018;28;20223;-66
2023/12/16 09:35:15;;;;;;;13.47;7.70;;;;;;;-141.84;84.50;19793.50;5012751;28;20233;-66
2023/12/16 09:37:44;;;;;;;11.33;7.47;;;;;;;-141.84;82.88;19261.06;5014028;28;20253;-66
2023/12/16 09:40:13;;;;;;;14.13;7.27;;;;;;;-141.84;83.67;19433.81;5006091;28;20214;-67
2023/12/16 09:42:44;;;;;;;14.03;8.00;;;;;;;-141.84;82.07;19165.56;5013373;28;20225;-66
2023/12/16 09:45:15;;;;;;;10.97;7.60;;;;;;;-141.84;81.53;18976.59;5011792;28;20664;-66
2023/12/16 09:47:44;;;;;;;12.03;7.23;;;;;;;-141.84;82.29;19159.47;5013841;28;20564;-66
2023/12/16 09:50:15;;;;;;;12.90;7.57;;;;;;;-141.84;81.68;18962.38;5013267;28;20226;-65
2023/12/16 09:52:44;;;;;;;11.43;6.60;;;;;;;-141.84;80.81;18923.78;5013571;28;20222;-66
2023/12/16 09:55:15;;;;;;;10.97;7.40;;;;;;;-141.84;81.04;18929.88;5011630;28;20234;-68
2023/12/16 09:57:45;;;;;;;12.03;7.40;;;;;;;-141.84;78.12;18712.47;5013592;28;20211;-65
2023/12/16 10:00:17;;;;;;;11.60;6.70;;;;;;;-141.84;79.70;18860.78;5012841;28;20238;-67
2023/12/16 10:02:50;;;;;;;11.47;6.37;;;;;;;-141.84;78.53;18775.44;5011032;28;20258;-65
2023/12/16 10:05:21;;;;;;;10.80;6.47;;;;;;;-141.84;78.26;18783.56;5012609;28;20218;-66
2023/12/16 10:07:51;;;;;;;10.40;6.00;;;;;;;-141.84;78.08;18744.97;5009044;28;20233;-66
2023/12/16 10:10:19;;;;;;;9.77;5.90;;;;;;;-141.84;77.85;18700.25;5011831;28;20651;-66
2023/12/16 10:12:48;;;;;;;11.73;6.90;;;;;;;-141.84;77.72;18716.53;5012393;28;20306;-64
2023/12/16 10:15:30;;;;;;;8.30;6.00;;;;;;;-141.84;76.30;18635.25;5011837;28;20230;-66
2023/12/16 10:18:00;;;;;;;7.93;5.77;;;;;;;-141.84;77.74;18706.38;5012231;28;20317;-67
2023/12/16 10:20:31;;;;;;;10.37;6.17;;;;;;;-141.84;74.78;18655.56;5012753;28;20234;-67
2023/12/16 10:23:01;;;;;;;9.47;5.40;;;;;;;-141.84;74.40;18631.19;5007614;28;20277;-66
2023/12/16 10:25:31;;;;;;;10.60;5.93;;;;;;;-141.84;74.83;18606.81;5011723;28;20289;-66
2023/12/16 10:28:02;;;;;;;9.00;6.00;;;;;;;-141.84;75.66;18653.53;5008696;28;20438;-65
2023/12/16 10:30:31;;;;;;;7.90;5.90;;;;;;;-141.84;77.86;18681.97;5012596;28;20943;-67
2023/12/16 10:33:02;;;;;;;11.33;6.47;;;;;;;-141.84;78.90;18755.13;5007607;28;20231;-66
2023/12/16 10:35:33;;;;;;;12.77;5.63;;;;;;;-141.84;77.60;18712.47;5012421;28;20273;-65
2023/12/16 10:38:02;;;;;;;11.30;5.53;;;;;;;-141.84;77.32;18767.31;5012462;28;20250;-65
2023/12/16 10:40:31;;;;;;;9.57;5.70;;;;;;;-141.84;76.39;18651.50;5012180;28;20226;-66
2023/12/16 10:43:03;;;;;;;10.20;5.70;;;;;;;-141.84;74.81;18616.97;5003191;28;20613;-66
2023/12/16 10:45:32;;;;;;;12.60;5.87;;;;;;;-141.84;76.26;18661.66;5011676;28;20227;-66
2023/12/16 10:48:04;;;;;;;12.13;5.63;;;;;;;-141.84;74.54;18635.25;5008263;28;20229;-66
2023/12/16 10:50:40;;;;;;;12.03;5.60;;;;;;;-141.84;73.77;18621.03;5011706;28;20309;-66
2023/12/16 10:53:14;;;;;;;12.27;5.80;;;;;;;-141.84;72.52;18594.63;5012075;28;20246;-65
2023/12/16 10:55:53;;;;;;;10.60;5.83;;;;;;;-141.84;71.11;18606.81;5010147;28;20319;-65
2023/12/16 10:58:25;;;;;;;8.53;5.50;;;;;;;-141.84;69.01;18586.50;5010666;28;20211;-66
2023/12/16 11:01:01;;;;;;;9.83;5.30;;;;;;;-141.84;67.78;18631.19;5006912;28;20231;-66
2023/12/16 11:03:35;;;;;;;12.33;5.20;;;;;;;-141.84;67.29;18623.06;5001955;28;20235;-66
2023/12/16 11:06:12;;;;;;;10.33;5.17;;;;;;;-141.84;66.28;18631.19;5010531;28;20344;-66
2023/12/16 11:08:41;;;;;;;9.50;4.97;;;;;;;-141.84;66.68;18639.31;5010936;28;20282;-67